Time;durP1;ratioP1;P1;durP2;ratioP2;P2;SDS_P1;SDS_P2;PMS_P1;PMS_P2;Temp;Humidity;BMP_temperature;BMP_pressure;BME280_temperature;BME280_humidity;BME280_pressure;Samples;Min_cycle;Max_cycle;Signal;HPM_P1;HPM_P2
2020/12/13 00:00:34;;;;;;;20.92;15.95;;;;;;;7.94;70.46;99545.66;4937340;28;98804;-78
2020/12/13 00:03:01;;;;;;;21.25;14.88;;;;;;;7.98;70.06;99549.72;4954357;28;96700;-77
2020/12/13 00:05:28;;;;;;;20.48;16.85;;;;;;;8.02;69.53;99556.47;4955526;28;96640;-77
2020/12/13 00:07:54;;;;;;;21.33;17.20;;;;;;;7.96;69.46;99551.59;4954322;28;98536;-77
2020/12/13 00:10:21;;;;;;;17.65;15.63;;;;;;;7.91;69.78;99551.81;4954901;28;98780;-78
2020/12/13 00:12:47;;;;;;;20.35;16.65;;;;;;;7.88;69.57;99560.59;4954277;28;96635;-77
2020/12/13 00:15:14;;;;;;;22.67;19.10;;;;;;;7.90;69.57;99560.50;4955037;28;96635;-77
2020/12/13 00:17:40;;;;;;;28.30;19.08;;;;;;;7.79;69.77;99571.44;4953369;28;98570;-78
2020/12/13 00:20:07;;;;;;;19.75;16.33;;;;;;;7.85;69.65;99560.75;4936741;28;98607;-77
2020/12/13 00:22:33;;;;;;;20.65;16.60;;;;;;;7.61;70.74;99567.13;4954826;28;96602;-77
2020/12/13 00:24:59;;;;;;;21.73;17.95;;;;;;;7.65;70.53;99571.25;4954433;28;96764;-77
2020/12/13 00:27:26;;;;;;;24.63;20.15;;;;;;;7.72;70.13;99567.44;4948986;28;98543;-78
2020/12/13 00:29:52;;;;;;;24.83;18.35;;;;;;;7.58;70.50;99562.94;4942558;28;98853;-76
2020/12/13 00:32:19;;;;;;;25.17;18.33;;;;;;;7.60;70.70;99566.28;4944234;28;97256;-75
2020/12/13 00:34:45;;;;;;;24.08;18.83;;;;;;;7.55;70.61;99576.03;4939889;28;97304;-75
2020/12/13 00:37:12;;;;;;;23.65;19.65;;;;;;;7.42;70.68;99572.38;4941305;28;98787;-75
2020/12/13 00:39:38;;;;;;;27.00;19.70;;;;;;;7.41;70.75;99567.25;4944884;28;98553;-75
2020/12/13 00:42:05;;;;;;;26.25;19.15;;;;;;;7.41;70.85;99569.84;4942305;28;97263;-74
2020/12/13 00:44:32;;;;;;;22.48;16.75;;;;;;;7.45;70.41;99573.97;4928776;28;97668;-75
2020/12/13 00:46:58;;;;;;;21.30;16.55;;;;;;;7.53;69.92;99571.84;4945394;28;98423;-75
2020/12/13 00:49:25;;;;;;;18.83;15.38;;;;;;;7.50;69.63;99569.41;4917950;28;98626;-75
2020/12/13 00:51:53;;;;;;;18.65;15.82;;;;;;;7.48;69.30;99576.41;4941450;28;99379;-75
2020/12/13 00:54:20;;;;;;;17.52;15.00;;;;;;;7.55;68.83;99582.97;4892398;28;96688;-75
2020/12/13 00:56:47;;;;;;;16.17;14.02;;;;;;;7.39;69.48;99589.81;4941196;28;97948;-75
2020/12/13 00:59:16;;;;;;;17.50;14.95;;;;;;;7.39;69.62;99590.66;4942266;28;98422;-75
2020/12/13 01:01:42;;;;;;;19.63;15.57;;;;;;;7.34;69.54;99590.88;4944253;28;98389;-74
2020/12/13 01:04:09;;;;;;;16.42;14.23;;;;;;;7.42;69.06;99587.94;4944169;28;97735;-75
2020/12/13 01:06:36;;;;;;;17.77;15.15;;;;;;;7.41;68.55;99590.59;4942008;28;98673;-75
2020/12/13 01:09:02;;;;;;;17.30;14.65;;;;;;;7.15;69.50;99595.25;4938776;28;98663;-74
2020/12/13 01:11:31;;;;;;;15.88;13.68;;;;;;;7.32;68.57;99603.06;4926595;28;96781;-78
2020/12/13 01:13:57;;;;;;;16.38;13.27;;;;;;;7.39;67.94;99610.56;4929767;28;96690;-78
2020/12/13 01:16:24;;;;;;;15.70;12.45;;;;;;;7.38;68.08;99606.28;4942391;28;98929;-79
2020/12/13 01:18:52;;;;;;;16.85;12.50;;;;;;;7.29;68.45;99607.56;4941625;28;98419;-80
2020/12/13 01:21:21;;;;;;;16.70;13.13;;;;;;;7.32;68.05;99608.25;4949058;28;96784;-81
2020/12/13 01:23:47;;;;;;;14.23;10.88;;;;;;;7.35;67.93;99613.31;4946105;28;97472;-78
2020/12/13 01:26:15;;;;;;;14.25;11.73;;;;;;;7.35;67.90;99615.91;4944738;28;98521;-78
2020/12/13 01:28:41;;;;;;;15.90;12.25;;;;;;;7.27;67.87;99620.59;4948764;28;100807;-77
2020/12/13 01:31:08;;;;;;;13.63;10.90;;;;;;;7.26;67.87;99618.91;4943935;28;97131;-76
2020/12/13 01:33:34;;;;;;;13.57;10.30;;;;;;;7.12;68.64;99621.28;4925875;28;98198;-76
2020/12/13 01:36:01;;;;;;;14.48;11.77;;;;;;;7.03;69.71;99625.16;4941351;28;98798;-77
2020/12/13 01:38:27;;;;;;;14.57;11.70;;;;;;;6.97;69.79;99621.97;4948914;28;98713;-77
2020/12/13 01:40:57;;;;;;;14.25;10.90;;;;;;;6.96;70.01;99620.31;4946638;28;99864;-74
2020/12/13 01:43:25;;;;;;;12.93;10.57;;;;;;;6.95;69.39;99618.63;4944931;28;98739;-74
2020/12/13 01:45:52;;;;;;;13.90;10.90;;;;;;;6.97;69.40;99624.56;4945774;28;98497;-72
2020/12/13 01:48:18;;;;;;;15.55;11.45;;;;;;;6.95;69.42;99629.00;4948920;28;99127;-72
2020/12/13 01:50:57;;;;;;;13.07;11.38;;;;;;;6.85;69.60;99627.72;4945011;28;96925;-72
2020/12/13 01:53:25;;;;;;;14.25;11.70;;;;;;;6.93;69.42;99628.25;4947518;28;97392;-70
2020/12/13 01:55:56;;;;;;;14.65;11.40;;;;;;;6.96;69.11;99635.84;4927711;28;98596;-71
2020/12/13 01:58:28;;;;;;;13.05;11.20;;;;;;;6.95;68.72;99637.59;4946177;28;98629;-73
2020/12/13 02:00:55;;;;;;;15.98;12.25;;;;;;;6.90;69.06;99636.13;4947336;28;96608;-71
2020/12/13 02:03:23;;;;;;;16.30;12.68;;;;;;;6.82;69.50;99637.31;4945259;28;102262;-73
2020/12/13 02:06:03;;;;;;;12.02;10.80;;;;;;;6.83;68.96;99636.41;4944697;28;98476;-72
2020/12/13 02:08:39;;;;;;;12.20;9.57;;;;;;;6.93;68.70;99633.41;4920234;28;98519;-72
2020/12/13 02:11:08;;;;;;;15.15;11.07;;;;;;;6.98;68.28;99634.06;4942466;28;96696;-72
2020/12/13 02:13:36;;;;;;;12.95;10.10;;;;;;;6.89;68.75;99634.47;4944826;28;97858;-72
2020/12/13 02:16:02;;;;;;;14.25;11.10;;;;;;;6.78;69.10;99640.94;4944637;28;98445;-72
2020/12/13 02:18:28;;;;;;;15.38;12.15;;;;;;;6.89;68.82;99637.06;4948257;28;98538;-72
2020/12/13 02:20:55;;;;;;;14.32;10.85;;;;;;;6.87;69.03;99628.47;4943202;28;98626;-72
2020/12/13 02:23:22;;;;;;;13.77;10.18;;;;;;;7.02;67.75;99632.97;4945229;28;97213;-72
2020/12/13 02:25:49;;;;;;;15.13;12.52;;;;;;;6.97;67.90;99635.78;4946231;28;98639;-75
2020/12/13 02:28:15;;;;;;;14.50;11.40;;;;;;;6.85;68.24;99643.28;4944144;28;100073;-76
2020/12/13 02:30:42;;;;;;;13.85;11.52;;;;;;;6.74;68.85;99642.00;4946402;28;98983;-75
2020/12/13 02:33:08;;;;;;;15.85;11.23;;;;;;;6.68;69.55;99644.00;4944939;28;98186;-75
2020/12/13 02:35:35;;;;;;;12.48;10.60;;;;;;;6.81;69.45;99642.56;4929188;28;98582;-76
2020/12/13 02:38:01;;;;;;;12.25;10.40;;;;;;;6.85;68.49;99638.94;4924466;28;98595;-75
2020/12/13 02:40:28;;;;;;;14.10;10.48;;;;;;;6.78;69.09;99642.72;4924979;28;97645;-75
2020/12/13 02:42:55;;;;;;;13.77;11.27;;;;;;;6.92;67.93;99645.50;4941807;28;97506;-75
2020/12/13 02:45:21;;;;;;;15.55;10.48;;;;;;;6.80;68.17;99654.66;4944627;28;98682;-75
2020/12/13 02:47:48;;;;;;;13.63;10.43;;;;;;;6.72;69.12;99649.00;4942290;28;98604;-76
2020/12/13 02:50:14;;;;;;;12.00;10.35;;;;;;;6.69;69.07;99646.53;4941627;28;96833;-77
2020/12/13 02:52:41;;;;;;;12.90;10.98;;;;;;;6.69;69.26;99654.28;4944177;28;99368;-77
2020/12/13 02:55:07;;;;;;;14.27;11.00;;;;;;;6.71;69.13;99652.50;4944815;28;99001;-78
2020/12/13 02:57:33;;;;;;;11.55;10.00;;;;;;;6.76;69.13;99660.03;4943851;28;98442;-78
2020/12/13 03:00:00;;;;;;;13.43;9.48;;;;;;;6.72;68.90;99654.19;4942798;28;97753;-78
2020/12/13 03:02:26;;;;;;;11.95;10.63;;;;;;;6.83;68.19;99659.72;4946864;28;98242;-78
2020/12/13 03:04:52;;;;;;;11.95;10.63;;;;;;;6.85;67.81;99651.88;4946426;28;98672;-78
2020/12/13 03:07:19;;;;;;;11.38;9.88;;;;;;;6.85;68.15;99661.41;4943014;28;98634;-77
2020/12/13 03:09:46;;;;;;;12.18;10.57;;;;;;;6.78;68.64;99664.25;4947414;28;96922;-77
2020/12/13 03:12:12;;;;;;;9.93;8.93;;;;;;;6.83;67.86;99664.06;4930594;28;99463;-77
2020/12/13 03:14:38;;;;;;;11.38;9.50;;;;;;;6.88;67.46;99653.50;4921176;28;100339;-78
2020/12/13 03:17:05;;;;;;;11.38;9.77;;;;;;;6.79;68.05;99659.94;4923610;28;98418;-77
2020/12/13 03:19:32;;;;;;;13.10;10.20;;;;;;;6.71;68.07;99664.59;4921234;28;96969;-76
2020/12/13 03:21:58;;;;;;;11.70;9.43;;;;;;;6.76;67.97;99666.06;4928484;28;98336;-77
2020/12/13 03:24:25;;;;;;;12.38;10.65;;;;;;;6.63;68.88;99657.16;4926113;28;98562;-74
2020/12/13 03:26:51;;;;;;;14.43;12.80;;;;;;;6.66;68.24;99663.94;4925359;28;99259;-75
2020/12/13 03:29:17;;;;;;;13.30;11.57;;;;;;;6.73;67.75;99655.84;4926423;28;96721;-75
2020/12/13 03:31:45;;;;;;;10.52;9.25;;;;;;;6.74;67.54;99659.28;4924798;28;96642;-75
2020/12/13 03:34:12;;;;;;;11.07;9.50;;;;;;;6.75;67.67;99654.03;4923831;28;98549;-75
2020/12/13 03:36:38;;;;;;;10.15;8.88;;;;;;;6.73;67.48;99655.00;4924549;28;98428;-75
2020/12/13 03:39:04;;;;;;;10.25;8.52;;;;;;;6.78;67.20;99663.44;4926039;28;96812;-75
2020/12/13 03:41:31;;;;;;;9.80;8.52;;;;;;;6.75;67.28;99669.56;4925496;28;97262;-76
2020/12/13 03:43:57;;;;;;;14.52;8.48;;;;;;;6.71;67.94;99669.75;4919290;28;100514;-75
2020/12/13 03:46:24;;;;;;;9.45;7.80;;;;;;;6.68;67.74;99668.16;4923781;28;98646;-75
2020/12/13 03:48:51;;;;;;;9.35;7.22;;;;;;;6.69;67.75;99677.59;4926746;28;98006;-75
2020/12/13 03:51:17;;;;;;;8.45;7.13;;;;;;;6.70;67.97;99675.84;4925189;28;98022;-76
2020/12/13 03:53:44;;;;;;;12.60;8.60;;;;;;;6.72;67.52;99676.66;4925680;28;99041;-76
2020/12/13 03:56:10;;;;;;;9.07;7.15;;;;;;;6.78;67.42;99679.81;4924929;28;98674;-76
2020/12/13 03:58:37;;;;;;;7.93;7.13;;;;;;;6.75;67.46;99679.94;4923299;28;97143;-76
2020/12/13 04:01:03;;;;;;;10.25;7.20;;;;;;;6.77;67.62;99682.47;4920784;28;99268;-76
2020/12/13 04:03:30;;;;;;;10.05;7.50;;;;;;;6.68;67.36;99683.69;4919791;28;98617;-76
2020/12/13 04:05:56;;;;;;;10.20;7.50;;;;;;;6.62;67.76;99686.56;4925738;28;98552;-76
2020/12/13 04:08:22;;;;;;;9.05;7.47;;;;;;;6.54;68.48;99676.50;4924124;28;99809;-76
2020/12/13 04:10:49;;;;;;;10.43;7.18;;;;;;;6.48;69.02;99688.88;4923881;28;98478;-76
2020/12/13 04:13:15;;;;;;;7.07;6.32;;;;;;;6.52;68.91;99687.84;4923387;28;98459;-77
2020/12/13 04:15:42;;;;;;;7.60;6.80;;;;;;;6.44;68.88;99689.91;4929867;28;98783;-78
2020/12/13 04:18:08;;;;;;;7.80;7.00;;;;;;;6.50;68.88;99687.94;4935908;28;98033;-77
2020/12/13 04:20:35;;;;;;;7.40;6.63;;;;;;;6.51;68.40;99691.34;4928020;28;97720;-77
2020/12/13 04:23:01;;;;;;;9.95;8.95;;;;;;;6.25;69.23;99695.03;4926115;28;98866;-77
2020/12/13 04:25:28;;;;;;;8.27;7.38;;;;;;;6.22;69.77;99700.31;4934561;28;98773;-78
2020/12/13 04:27:54;;;;;;;8.68;7.78;;;;;;;6.33;69.52;99697.28;4930550;28;97413;-78
2020/12/13 04:30:20;;;;;;;12.05;8.48;;;;;;;6.36;69.58;99698.00;4930353;28;97271;-78
2020/12/13 04:32:47;;;;;;;9.68;8.45;;;;;;;6.29;69.48;99702.59;4927518;28;98735;-77
2020/12/13 04:35:14;;;;;;;8.75;7.82;;;;;;;6.29;69.45;99702.59;4922507;28;98586;-77
2020/12/13 04:37:40;;;;;;;7.93;6.68;;;;;;;6.28;69.73;99700.94;4924290;28;97513;-77
2020/12/13 04:40:07;;;;;;;7.47;6.68;;;;;;;6.17;70.29;99708.25;4929756;28;96912;-77
2020/12/13 04:42:34;;;;;;;7.57;6.88;;;;;;;6.10;70.22;99706.84;4920396;28;98646;-77
2020/12/13 04:45:01;;;;;;;7.82;6.68;;;;;;;6.34;69.45;99701.53;4922395;28;98432;-77
2020/12/13 04:47:29;;;;;;;8.27;7.47;;;;;;;6.45;68.35;99709.75;4924148;28;97607;-76
2020/12/13 04:49:55;;;;;;;7.90;6.97;;;;;;;6.23;69.40;99709.75;4923615;28;97307;-75
2020/12/13 04:52:22;;;;;;;7.07;6.35;;;;;;;6.27;68.90;99709.56;4906409;28;100590;-76
2020/12/13 04:54:49;;;;;;;8.60;7.47;;;;;;;6.22;69.29;99705.47;4921187;28;98451;-76
2020/12/13 04:57:19;;;;;;;7.82;6.78;;;;;;;6.14;69.26;99715.31;4918928;28;97063;-76
2020/12/13 04:59:46;;;;;;;9.10;7.65;;;;;;;6.06;69.64;99718.19;4919519;28;97787;-76
2020/12/13 05:02:13;;;;;;;9.88;7.47;;;;;;;6.16;69.34;99721.25;4922027;28;100324;-76
2020/12/13 05:04:40;;;;;;;9.65;8.65;;;;;;;6.18;68.72;99722.91;4921404;28;98700;-75
2020/12/13 05:07:07;;;;;;;9.35;8.32;;;;;;;6.23;68.65;99728.75;4920293;28;98115;-76
2020/12/13 05:09:33;;;;;;;9.27;7.93;;;;;;;6.28;68.53;99726.81;4927081;28;97786;-72
2020/12/13 05:12:00;;;;;;;8.95;8.05;;;;;;;6.15;69.03;99735.13;4930972;28;98645;-77
2020/12/13 05:14:27;;;;;;;10.40;8.48;;;;;;;6.18;68.92;99732.38;4946543;28;98597;-76
2020/12/13 05:17:13;;;;;;;8.65;7.75;;;;;;;6.21;68.98;99740.03;4944629;28;96720;-76
2020/12/13 05:19:41;;;;;;;10.55;8.30;;;;;;;6.08;69.25;99739.69;4950880;28;96797;-77
2020/12/13 05:22:08;;;;;;;9.75;8.52;;;;;;;6.01;69.55;99743.41;4952890;28;98677;-77
2020/12/13 05:24:34;;;;;;;10.45;8.80;;;;;;;6.07;68.99;99748.34;4935448;28;98503;-76
2020/12/13 05:27:05;;;;;;;8.98;7.57;;;;;;;5.97;69.46;99753.06;4912121;28;96672;-76
2020/12/13 05:29:34;;;;;;;10.18;9.07;;;;;;;5.95;69.21;99756.59;4945967;28;96722;-77
2020/12/13 05:32:17;;;;;;;11.15;8.48;;;;;;;5.96;68.84;99756.53;4950617;28;98616;-78
2020/12/13 05:34:45;;;;;;;9.15;7.72;;;;;;;6.01;68.28;99764.09;4937600;28;98636;-76
2020/12/13 05:37:15;;;;;;;8.80;7.47;;;;;;;5.96;68.16;99768.63;4939624;28;96815;-76
2020/12/13 05:39:50;;;;;;;8.68;7.78;;;;;;;5.86;69.16;99775.88;4933320;28;98782;-76
2020/12/13 05:42:24;;;;;;;9.68;8.55;;;;;;;5.82;69.04;99786.41;4952968;28;98516;-75
2020/12/13 05:45:09;;;;;;;9.82;7.55;;;;;;;5.91;68.36;99793.78;4940491;28;98511;-79
2020/12/13 05:52:57;;;;;;;;;;;;;;;5.82;69.26;99800.19;4935328;28;98495;-76
2020/12/13 05:55:23;;;;;;;7.13;5.80;;;;;;;5.91;68.80;99804.13;4948232;28;98485;-75
2020/12/13 05:57:49;;;;;;;6.88;6.13;;;;;;;5.92;68.28;99803.28;4940526;28;96651;-76
2020/12/13 06:00:17;;;;;;;8.18;6.78;;;;;;;5.77;68.95;99808.09;4947939;28;97043;-74
2020/12/13 06:02:48;;;;;;;6.88;6.05;;;;;;;5.54;69.89;99810.69;4949721;28;98666;-74
2020/12/13 06:05:15;;;;;;;8.13;7.32;;;;;;;5.59;69.46;99813.94;4950734;28;99012;-74
2020/12/13 06:07:49;;;;;;;8.65;7.18;;;;;;;5.76;68.15;99816.75;4933799;28;96706;-75
2020/12/13 06:10:24;;;;;;;7.03;6.33;;;;;;;5.87;68.00;99821.53;4946615;28;97215;-73
2020/12/13 06:13:08;;;;;;;8.63;7.18;;;;;;;5.87;67.45;99823.28;4950205;28;98668;-74
2020/12/13 06:15:35;;;;;;;9.18;8.27;;;;;;;5.96;67.13;99828.13;4918021;28;98644;-76
2020/12/13 06:18:03;;;;;;;8.30;6.95;;;;;;;5.84;68.05;99828.56;4950571;28;96596;-76
2020/12/13 06:20:29;;;;;;;13.75;7.72;;;;;;;5.67;69.14;99829.19;4952611;28;96791;-75
2020/12/13 06:22:56;;;;;;;6.78;5.47;;;;;;;5.71;68.89;99836.78;4955474;28;98740;-77
2020/12/13 06:25:22;;;;;;;6.65;6.03;;;;;;;5.65;69.14;99831.00;4955543;28;98566;-76
2020/12/13 06:27:49;;;;;;;7.55;6.85;;;;;;;5.67;68.89;99835.19;4951662;28;97893;-76
2020/12/13 06:30:16;;;;;;;7.72;6.30;;;;;;;5.58;69.29;99832.94;4945390;28;96620;-76
2020/12/13 06:32:46;;;;;;;5.95;5.18;;;;;;;5.67;69.24;99831.78;4941716;28;98439;-77
2020/12/13 06:35:12;;;;;;;6.40;5.72;;;;;;;5.82;68.57;99845.91;4942986;28;98391;-76
2020/12/13 06:37:39;;;;;;;6.72;6.05;;;;;;;5.78;68.10;99840.81;4952517;28;96712;-78
2020/12/13 06:40:06;;;;;;;6.93;6.22;;;;;;;5.73;69.50;99837.56;4951150;28;97554;-76
2020/12/13 06:42:40;;;;;;;7.00;5.68;;;;;;;5.85;69.31;99840.59;4942951;28;98348;-78
2020/12/13 06:45:09;;;;;;;10.00;6.25;;;;;;;5.82;69.48;99841.56;4943908;28;98663;-76
2020/12/13 06:47:41;;;;;;;6.82;6.13;;;;;;;5.84;69.24;99838.91;4940344;28;97371;-76
2020/12/13 06:50:08;;;;;;;6.35;5.55;;;;;;;5.89;69.38;99844.75;4943840;28;96639;-76
2020/12/13 06:52:35;;;;;;;7.43;6.15;;;;;;;5.85;69.51;99846.59;4942582;28;98534;-78
2020/12/13 06:55:06;;;;;;;8.63;5.82;;;;;;;5.65;69.86;99847.34;4944761;28;98570;-75
2020/12/13 06:57:34;;;;;;;6.05;5.45;;;;;;;5.71;69.66;99848.88;4936389;28;96693;-75
2020/12/13 07:00:07;;;;;;;6.53;5.85;;;;;;;5.75;69.87;99850.41;4941077;28;96803;-74
2020/12/13 07:02:58;;;;;;;5.75;5.15;;;;;;;5.70;70.27;99853.19;4941960;28;98710;-75
2020/12/13 07:05:45;;;;;;;5.85;5.25;;;;;;;5.69;70.49;99859.25;4952154;28;98217;-72
2020/12/13 07:08:17;;;;;;;6.90;5.57;;;;;;;5.74;70.59;99859.09;4956767;28;96821;-77
2020/12/13 07:10:46;;;;;;;4.97;4.47;;;;;;;5.78;70.06;99871.00;4928115;28;96646;-76
2020/12/13 07:13:17;;;;;;;7.80;5.90;;;;;;;5.84;69.22;99875.13;4944917;28;97490;-76
2020/12/13 07:18:26;;;;;;;20.52;13.75;;;;;;;6.14;68.83;99884.38;4939104;28;96584;-76
2020/12/13 07:20:52;;;;;;;25.80;16.42;;;;;;;6.24;68.96;99885.72;4938495;28;97036;-76
2020/12/13 07:23:18;;;;;;;35.75;18.75;;;;;;;6.42;68.98;99888.50;4922058;28;98428;-77
2020/12/13 07:25:45;;;;;;;47.92;25.83;;;;;;;6.87;68.12;99890.16;4954626;28;98790;-76
2020/12/13 07:28:11;;;;;;;32.83;18.13;;;;;;;7.19;67.69;99887.13;4954892;28;96705;-77
2020/12/13 07:30:38;;;;;;;27.52;16.33;;;;;;;7.72;66.77;99891.72;4932855;28;96722;-78
2020/12/13 07:33:04;;;;;;;22.73;14.23;;;;;;;8.09;64.65;99890.09;4955089;28;98435;-78
2020/12/13 07:35:32;;;;;;;18.77;12.10;;;;;;;8.51;62.79;99883.88;4956507;28;98836;-78
2020/12/13 07:37:58;;;;;;;20.77;13.68;;;;;;;8.85;62.47;99890.91;4938412;28;96641;-78
2020/12/13 07:40:27;;;;;;;18.77;11.93;;;;;;;9.17;61.49;99889.34;4920389;28;97001;-78
2020/12/13 07:42:57;;;;;;;15.43;11.43;;;;;;;9.51;60.59;99888.47;4936703;28;98801;-78
2020/12/13 07:45:23;;;;;;;17.70;10.70;;;;;;;9.79;60.62;99882.66;4955812;28;98567;-78
2020/12/13 07:48:00;;;;;;;12.30;9.48;;;;;;;10.03;58.75;99887.50;4953958;28;96743;-78
2020/12/13 07:50:34;;;;;;;13.48;9.63;;;;;;;10.23;58.54;99890.75;4939957;28;96769;-73
2020/12/13 07:53:01;;;;;;;13.38;9.85;;;;;;;10.39;57.32;99892.53;4954331;28;98887;-76
2020/12/13 07:55:28;;;;;;;13.75;9.48;;;;;;;10.66;56.93;99890.16;4954680;28;98701;-72
2020/12/13 07:57:54;;;;;;;13.55;9.20;;;;;;;10.72;56.25;99892.41;4954714;28;96638;-73
2020/12/13 08:00:20;;;;;;;10.20;7.97;;;;;;;10.86;56.07;99895.06;4955048;28;96848;-73
2020/12/13 08:02:49;;;;;;;8.38;7.47;;;;;;;11.09;55.66;99899.00;4950969;28;98381;-76
2020/12/13 08:05:24;;;;;;;11.00;8.30;;;;;;;11.09;54.50;99899.00;4954397;28;97545;-81
2020/12/13 08:08:01;;;;;;;12.15;9.18;;;;;;;11.36;55.22;99908.75;4955102;28;96592;-73
2020/12/13 08:10:30;;;;;;;10.80;7.40;;;;;;;11.20;54.29;99907.03;4948073;28;96619;-73
2020/12/13 08:12:56;;;;;;;9.10;7.05;;;;;;;11.28;54.82;99915.25;4949483;28;98816;-76
2020/12/13 08:15:22;;;;;;;10.95;8.23;;;;;;;11.29;55.09;99918.69;4954191;28;98697;-75
2020/12/13 08:17:58;;;;;;;10.80;8.38;;;;;;;11.23;54.98;99925.09;4955027;28;96529;-77
2020/12/13 08:20:26;;;;;;;10.38;8.65;;;;;;;11.08;54.69;99920.78;4949979;28;96798;-76
2020/12/13 08:22:53;;;;;;;10.20;8.68;;;;;;;11.00;54.82;99931.66;4921311;28;98584;-75
2020/12/13 08:25:19;;;;;;;12.13;7.78;;;;;;;10.89;55.61;99922.75;4936265;28;98614;-75
2020/12/13 08:27:45;;;;;;;9.73;7.85;;;;;;;10.95;55.35;99925.84;4954941;28;97026;-73
2020/12/13 08:30:12;;;;;;;9.85;8.75;;;;;;;10.87;55.01;99935.03;4954861;28;96903;-73
2020/12/13 08:32:38;;;;;;;10.15;7.95;;;;;;;10.67;56.02;99931.78;4919524;28;98625;-76
2020/12/13 08:35:20;;;;;;;9.55;8.23;;;;;;;10.51;56.75;99935.31;4954433;28;98407;-71
2020/12/13 08:38:00;;;;;;;10.35;9.15;;;;;;;10.19;57.81;99948.28;4951460;28;98054;-72
2020/12/13 08:40:53;;;;;;;8.30;7.38;;;;;;;9.85;59.53;99947.41;4951454;28;96840;-73
2020/12/13 08:43:19;;;;;;;11.75;8.93;;;;;;;9.55;60.35;99957.66;4945612;28;98643;-76
2020/12/13 08:45:52;;;;;;;9.95;8.52;;;;;;;9.42;61.37;99964.38;4948795;28;98475;-65
2020/12/13 08:48:24;;;;;;;8.65;6.72;;;;;;;9.30;61.71;99964.97;4949536;28;97244;-68
2020/12/13 08:51:06;;;;;;;7.13;6.25;;;;;;;9.10;62.86;99964.19;4956864;28;96638;-69
2020/12/13 08:53:33;;;;;;;7.75;6.97;;;;;;;8.75;64.20;99965.88;4953006;28;98606;-69
2020/12/13 08:56:10;;;;;;;7.80;6.68;;;;;;;8.71;64.35;99973.88;4964578;28;98456;-68
2020/12/13 08:58:49;;;;;;;8.13;7.32;;;;;;;8.79;64.24;99975.22;4958689;28;96623;-73
2020/12/13 09:01:16;;;;;;;22.92;10.07;;;;;;;8.80;64.80;99981.25;4960700;28;96626;-76
2020/12/13 09:03:43;;;;;;;9.07;6.95;;;;;;;8.73;65.45;99988.47;4967252;28;98501;-74
2020/12/13 09:06:09;;;;;;;7.95;7.15;;;;;;;8.36;66.23;99997.97;4970401;28;97615;-69
2020/12/13 09:08:36;;;;;;;9.32;7.47;;;;;;;8.16;67.10;99997.97;4929923;28;96845;-69
2020/12/13 09:11:05;;;;;;;14.82;8.02;;;;;;;8.47;66.80;100001.81;4954078;28;96974;-70
2020/12/13 09:13:32;;;;;;;7.68;6.93;;;;;;;8.58;66.62;100002.19;4951668;28;98617;-69
2020/12/13 09:16:02;;;;;;;8.40;7.60;;;;;;;8.70;66.06;100012.03;4951718;28;98746;-69
2020/12/13 09:18:29;;;;;;;10.18;7.38;;;;;;;8.76;66.14;100019.53;4964800;28;96582;-70
2020/12/13 09:20:57;;;;;;;9.50;8.60;;;;;;;8.71;66.37;100024.09;4966116;28;96647;-68
2020/12/13 09:23:23;;;;;;;10.35;8.27;;;;;;;8.65;66.99;100025.22;4960817;28;97874;-71
2020/12/13 09:25:53;;;;;;;9.18;8.18;;;;;;;8.66;67.35;100032.09;4960120;28;98433;-72
2020/12/13 09:28:21;;;;;;;9.60;8.65;;;;;;;8.73;66.71;100035.25;4962887;28;96540;-75
2020/12/13 09:30:47;;;;;;;9.73;8.65;;;;;;;8.81;66.43;100030.56;4960454;28;96655;-71
2020/12/13 09:33:15;;;;;;;9.60;8.48;;;;;;;8.84;66.00;100040.84;4955737;28;98663;-72
2020/12/13 09:35:42;;;;;;;8.73;7.82;;;;;;;8.84;65.08;100039.97;4952204;28;98710;-71
2020/12/13 09:38:09;;;;;;;6.65;5.72;;;;;;;8.90;63.64;100050.94;4954099;28;96816;-70
2020/12/13 09:40:36;;;;;;;6.47;5.85;;;;;;;9.01;63.47;100044.41;4954817;28;96784;-70
2020/12/13 09:43:03;;;;;;;9.68;5.13;;;;;;;9.01;63.54;100052.19;4961503;28;98960;-68
2020/12/13 09:45:29;;;;;;;6.45;5.55;;;;;;;8.97;63.76;100041.09;4962360;28;98441;-70
2020/12/13 09:47:56;;;;;;;5.70;4.63;;;;;;;9.01;63.28;100052.19;4956976;28;97162;-70
2020/12/13 09:50:23;;;;;;;5.88;5.25;;;;;;;9.09;63.11;100055.28;4963583;28;96677;-70
2020/12/13 09:52:50;;;;;;;5.22;4.53;;;;;;;9.09;63.26;100055.28;4966834;28;98582;-69
2020/12/13 09:55:17;;;;;;;7.03;4.57;;;;;;;9.10;62.87;100057.78;4969640;28;98483;-68
2020/12/13 09:57:43;;;;;;;7.13;5.00;;;;;;;9.04;62.98;100059.84;4967982;28;97761;-70
2020/12/13 10:00:12;;;;;;;5.25;4.35;;;;;;;9.08;63.33;100057.03;4968178;28;97006;-70
2020/12/13 10:02:39;;;;;;;5.72;4.80;;;;;;;9.11;63.45;100054.31;4936006;28;98523;-74
2020/12/13 10:05:11;;;;;;;5.65;5.15;;;;;;;9.12;63.79;100058.59;4955427;28;98442;-68
2020/12/13 10:10:14;;;;;;;6.07;5.47;;;;;;;9.14;63.49;100059.34;4951299;28;98258;-75
2020/12/13 10:12:41;;;;;;;6.60;6.00;;;;;;;9.14;63.80;100055.91;4955422;28;98525;-72
2020/12/13 10:15:10;;;;;;;5.50;4.80;;;;;;;9.18;63.48;100049.66;4956144;28;98630;-74
2020/12/13 10:17:37;;;;;;;6.18;5.55;;;;;;;9.22;63.55;100050.34;4956494;28;96662;-74
2020/12/13 10:20:04;;;;;;;6.07;5.47;;;;;;;9.26;63.54;100046.66;4956461;28;96731;-74
2020/12/13 10:22:30;;;;;;;6.22;4.57;;;;;;;9.23;63.23;100042.47;4956245;28;98535;-76
2020/12/13 10:24:56;;;;;;;6.82;5.10;;;;;;;9.27;62.97;100041.41;4955962;28;98571;-76
2020/12/13 10:27:23;;;;;;;6.75;5.25;;;;;;;9.33;62.83;100035.91;4957692;28;96713;-77
2020/12/13 10:29:49;;;;;;;6.03;5.32;;;;;;;9.26;63.16;100037.09;4957109;28;96747;-77
2020/12/13 10:32:16;;;;;;;8.30;4.80;;;;;;;9.29;63.49;100039.56;4937845;28;98423;-72
2020/12/13 10:34:43;;;;;;;7.15;6.55;;;;;;;9.33;63.75;100043.72;4955303;28;98877;-73
2020/12/13 10:37:09;;;;;;;5.47;4.72;;;;;;;9.34;63.37;100049.75;4951760;28;97075;-73
2020/12/13 10:39:36;;;;;;;6.30;4.43;;;;;;;9.24;63.26;100046.75;4951698;28;96644;-71
2020/12/13 10:42:05;;;;;;;13.32;9.43;;;;;;;9.32;63.52;100049.84;4951407;28;98744;-72
2020/12/13 10:44:31;;;;;;;7.72;6.97;;;;;;;9.14;63.85;100055.91;4952841;28;98705;-72
2020/12/13 10:46:58;;;;;;;21.88;19.75;;;;;;;9.24;63.94;100048.50;4953396;28;96552;-73
2020/12/13 10:49:26;;;;;;;6.28;5.68;;;;;;;9.24;63.57;100044.16;4951547;28;99313;-73
2020/12/13 10:51:52;;;;;;;35.90;31.98;;;;;;;9.18;64.20;100041.84;4943496;28;98648;-72
2020/12/13 10:54:19;;;;;;;13.57;12.13;;;;;;;9.13;64.26;100041.22;4943703;28;98850;-72
2020/12/13 10:56:45;;;;;;;6.40;5.80;;;;;;;9.22;63.83;100037.34;4938311;28;96690;-70
2020/12/13 10:59:11;;;;;;;10.25;8.00;;;;;;;9.32;63.80;100038.56;4924018;28;96897;-70
2020/12/13 11:01:38;;;;;;;5.22;4.63;;;;;;;9.41;63.56;100028.56;4939292;28;98471;-73
2020/12/13 11:04:05;;;;;;;4.03;3.63;;;;;;;9.49;63.74;100032.56;4934152;28;99260;-69
2020/12/13 11:06:31;;;;;;;4.72;4.30;;;;;;;9.54;63.14;100036.63;4934108;28;96889;-72
2020/12/13 11:09:01;;;;;;;5.88;4.13;;;;;;;9.57;63.10;100030.41;4953473;28;97017;-73
2020/12/13 11:11:28;;;;;;;5.38;4.60;;;;;;;9.62;63.17;100028.44;4944857;28;98531;-73
2020/12/13 11:13:54;;;;;;;4.45;3.95;;;;;;;9.61;63.20;100029.34;4946127;28;98544;-73
2020/12/13 11:16:20;;;;;;;7.32;4.70;;;;;;;9.67;63.25;100027.28;4950943;28;96609;-74
2020/12/13 11:18:47;;;;;;;5.60;5.03;;;;;;;9.60;63.25;100033.72;4954642;28;97090;-72
2020/12/13 11:21:13;;;;;;;6.57;5.72;;;;;;;9.59;63.61;100028.59;4952935;28;98664;-72
2020/12/13 11:23:40;;;;;;;9.73;7.10;;;;;;;9.51;63.90;100034.16;4954902;28;98603;-72
2020/12/13 11:26:07;;;;;;;5.28;4.13;;;;;;;9.50;63.88;100027.28;4954146;28;96620;-76
2020/12/13 11:28:33;;;;;;;6.13;5.60;;;;;;;9.43;64.39;100033.72;4954503;28;97003;-78
2020/12/13 11:31:00;;;;;;;6.47;5.93;;;;;;;9.49;63.97;100028.22;4956180;28;97533;-80
2020/12/13 11:33:26;;;;;;;8.40;5.57;;;;;;;9.42;64.68;100034.59;4955533;28;98447;-77
2020/12/13 11:35:53;;;;;;;8.43;5.55;;;;;;;9.40;64.40;100028.66;4953350;28;97223;-71
2020/12/13 11:38:19;;;;;;;10.55;4.82;;;;;;;9.40;65.38;100019.09;4952645;28;96698;-73
2020/12/13 11:40:45;;;;;;;4.63;4.15;;;;;;;9.42;65.42;100011.19;4950781;28;98757;-74
2020/12/13 11:43:12;;;;;;;9.13;7.88;;;;;;;9.43;66.85;100018.09;4952645;28;98654;-76
2020/12/13 11:45:38;;;;;;;8.18;6.80;;;;;;;9.44;66.23;100019.78;4953411;28;96984;-77